This is the latest recevied weather packets stored in our database for station/object DK4DO-10. If no packets are shown the sender has not sent any weather packets the latest 10 day(s).
| Time | Temp. | Humidity | Pressure | Rain* | Wind** | Luminosity | Snow |
|---|---|---|---|---|---|---|---|
| 1777922581 | 18.33° C | 47% | 1007.1 hPa | - | - | - | - |
| 1777921981 | 18.33° C | 47% | 1007.1 hPa | - | - | - | - |
| 1777921381 | 18.33° C | 46% | 1006.9 hPa | - | - | - | - |
| 1777920780 | 18.33° C | 46% | 1006.9 hPa | - | - | - | - |
| 1777920180 | 18.89° C | 46% | 1007 hPa | - | - | - | - |
| 1777919580 | 18.33° C | 46% | 1007.2 hPa | - | - | - | - |
| 1777918979 | 17.78° C | 48% | 1007.3 hPa | - | - | - | - |
| 1777918387 | 17.78° C | 48% | 1007.3 hPa | - | - | - | - |
| 1777917786 | 17.78° C | 48% | 1007.2 hPa | - | - | - | - |
| 1777917186 | 17.22° C | 48% | 1007.3 hPa | - | - | - | - |
| 1777916586 | 17.78° C | 47% | 1007.3 hPa | - | - | - | - |
| 1777915986 | 17.78° C | 46% | 1007.3 hPa | - | - | - | - |
| 1777915386 | 18.33° C | 45% | 1007.3 hPa | - | - | - | - |
| 1777914786 | 18.33° C | 45% | 1007.1 hPa | - | - | - | - |
| 1777914185 | 19.44° C | 41% | 1007 hPa | - | - | - | - |
| 1777913585 | 20° C | 40% | 1007.1 hPa | - | - | - | - |
| 1777912985 | 19.44° C | 39% | 1007.1 hPa | - | - | - | - |
| 1777912384 | 20° C | 37% | 1007 hPa | - | - | - | - |
| 1777911784 | 21.11° C | 36% | 1006.8 hPa | - | - | - | - |
| 1777911184 | 20.56° C | 35% | 1006.8 hPa | - | - | - | - |
| 1777910584 | 21.11° C | 36% | 1006.8 hPa | - | - | - | - |
| 1777909983 | 21.67° C | 34% | 1006.9 hPa | - | - | - | - |
| 1777909383 | 21.67° C | 34% | 1006.8 hPa | - | - | - | - |
| 1777908783 | 21.67° C | 35% | 1006.8 hPa | - | - | - | - |
| 1777908183 | 21.67° C | 35% | 1006.8 hPa | - | - | - | - |
* Rain since midnight (hover to see other rain measurements)
** Current wind speed in m/s (hover to see current wind gust speed)